sensor_id;sensor_type;location;lat;lon;timestamp;temperature;humidity
38239;DHT22;24035;48.900;9.188;2022-09-09T00:01:19;14.50;1.00
38239;DHT22;24035;48.900;9.188;2022-09-09T00:04:19;14.70;1.00
38239;DHT22;24035;48.900;9.188;2022-09-09T00:10:28;15.00;1.00
38239;DHT22;24035;48.900;9.188;2022-09-09T00:16:21;15.10;1.00
38239;DHT22;24035;48.900;9.188;2022-09-09T00:19:22;15.20;97.70
38239;DHT22;24035;48.900;9.188;2022-09-09T00:22:23;15.20;45.80
38239;DHT22;24035;48.900;9.188;2022-09-09T00:25:19;15.30;33.40
38239;DHT22;24035;48.900;9.188;2022-09-09T00:28:23;15.20;99.90
38239;DHT22;24035;48.900;9.188;2022-09-09T00:31:18;15.30;96.40
38239;DHT22;24035;48.900;9.188;2022-09-09T00:34:15;15.20;1.00
38239;DHT22;24035;48.900;9.188;2022-09-09T00:37:04;15.20;1.00
38239;DHT22;24035;48.900;9.188;2022-09-09T00:39:51;15.20;1.00
38239;DHT22;24035;48.900;9.188;2022-09-09T00:42:44;15.30;1.00
38239;DHT22;24035;48.900;9.188;2022-09-09T00:49:12;15.30;99.90
38239;DHT22;24035;48.900;9.188;2022-09-09T00:52:17;15.40;1.00
38239;DHT22;24035;48.900;9.188;2022-09-09T00:56:04;15.30;1.00
38239;DHT22;24035;48.900;9.188;2022-09-09T00:58:26;15.30;99.90
38239;DHT22;24035;48.900;9.188;2022-09-09T01:01:13;15.40;99.90
38239;DHT22;24035;48.900;9.188;2022-09-09T01:04:00;15.40;1.00
38239;DHT22;24035;48.900;9.188;2022-09-09T01:06:52;15.40;99.90
38239;DHT22;24035;48.900;9.188;2022-09-09T01:09:52;15.40;99.90
38239;DHT22;24035;48.900;9.188;2022-09-09T01:12:42;15.50;99.90
38239;DHT22;24035;48.900;9.188;2022-09-09T01:15:30;15.50;99.90
38239;DHT22;24035;48.900;9.188;2022-09-09T01:18:17;15.60;99.90
38239;DHT22;24035;48.900;9.188;2022-09-09T01:24:27;15.70;99.90
38239;DHT22;24035;48.900;9.188;2022-09-09T01:27:15;15.70;83.10
38239;DHT22;24035;48.900;9.188;2022-09-09T01:30:10;15.80;1.00
38239;DHT22;24035;48.900;9.188;2022-09-09T01:32:58;15.80;1.00
38239;DHT22;24035;48.900;9.188;2022-09-09T01:35:50;15.70;1.00
38239;DHT22;24035;48.900;9.188;2022-09-09T01:38:40;15.70;1.00
38239;DHT22;24035;48.900;9.188;2022-09-09T01:41:26;15.70;55.00
38239;DHT22;24035;48.900;9.188;2022-09-09T01:44:13;15.70;21.70
38239;DHT22;24035;48.900;9.188;2022-09-09T01:46:59;15.70;99.90
38239;DHT22;24035;48.900;9.188;2022-09-09T01:49:44;15.60;1.00
38239;DHT22;24035;48.900;9.188;2022-09-09T01:52:39;15.50;87.70
38239;DHT22;24035;48.900;9.188;2022-09-09T01:55:40;15.50;99.90
38239;DHT22;24035;48.900;9.188;2022-09-09T02:04:56;15.40;99.90
38239;DHT22;24035;48.900;9.188;2022-09-09T02:07:49;15.50;99.90
38239;DHT22;24035;48.900;9.188;2022-09-09T02:10:42;15.50;1.00
38239;DHT22;24035;48.900;9.188;2022-09-09T02:13:32;15.40;99.90
38239;DHT22;24035;48.900;9.188;2022-09-09T02:16:54;15.50;99.90
38239;DHT22;24035;48.900;9.188;2022-09-09T02:19:48;15.40;99.90
38239;DHT22;24035;48.900;9.188;2022-09-09T02:22:37;15.40;99.90
38239;DHT22;24035;48.900;9.188;2022-09-09T02:25:27;15.40;1.00
38239;DHT22;24035;48.900;9.188;2022-09-09T02:28:15;15.30;1.00
38239;DHT22;24035;48.900;9.188;2022-09-09T02:31:02;15.20;1.00
38239;DHT22;24035;48.900;9.188;2022-09-09T02:33:54;15.10;1.00
38239;DHT22;24035;48.900;9.188;2022-09-09T02:36:43;14.90;1.00
38239;DHT22;24035;48.900;9.188;2022-09-09T02:39:29;14.70;1.00
38239;DHT22;24035;48.900;9.188;2022-09-09T02:42:15;14.70;1.00
38239;DHT22;24035;48.900;9.188;2022-09-09T02:45:01;14.70;1.00
38239;DHT22;24035;48.900;9.188;2022-09-09T02:54:41;14.50;14.10
38239;DHT22;24035;48.900;9.188;2022-09-09T02:57:30;14.50;99.90
38239;DHT22;24035;48.900;9.188;2022-09-09T03:00:26;14.40;99.90
38239;DHT22;24035;48.900;9.188;2022-09-09T03:03:13;14.40;99.90
38239;DHT22;24035;48.900;9.188;2022-09-09T03:05:59;14.40;91.40
38239;DHT22;24035;48.900;9.188;2022-09-09T03:08:45;14.40;99.90
38239;DHT22;24035;48.900;9.188;2022-09-09T03:11:31;14.40;99.90
38239;DHT22;24035;48.900;9.188;2022-09-09T03:14:17;14.30;99.90
38239;DHT22;24035;48.900;9.188;2022-09-09T03:17:06;14.30;99.90
38239;DHT22;24035;48.900;9.188;2022-09-09T03:19:52;14.20;1.00
38239;DHT22;24035;48.900;9.188;2022-09-09T03:22:40;14.30;1.00
38239;DHT22;24035;48.900;9.188;2022-09-09T03:25:26;14.30;1.00
38239;DHT22;24035;48.900;9.188;2022-09-09T03:28:12;14.30;1.00
38239;DHT22;24035;48.900;9.188;2022-09-09T03:31:03;14.20;1.00
38239;DHT22;24035;48.900;9.188;2022-09-09T03:33:49;14.10;1.00
38239;DHT22;24035;48.900;9.188;2022-09-09T03:36:36;14.00;99.90
38239;DHT22;24035;48.900;9.188;2022-09-09T03:39:21;14.00;99.90
38239;DHT22;24035;48.900;9.188;2022-09-09T03:42:07;14.00;99.90
38239;DHT22;24035;48.900;9.188;2022-09-09T03:44:53;14.00;99.90
38239;DHT22;24035;48.900;9.188;2022-09-09T03:47:40;14.00;1.00
38239;DHT22;24035;48.900;9.188;2022-09-09T03:50:26;13.90;1.00
38239;DHT22;24035;48.900;9.188;2022-09-09T03:53:12;14.00;1.00
38239;DHT22;24035;48.900;9.188;2022-09-09T03:55:58;14.10;1.00
38239;DHT22;24035;48.900;9.188;2022-09-09T03:58:45;14.20;99.90
38239;DHT22;24035;48.900;9.188;2022-09-09T04:01:31;14.30;1.00
38239;DHT22;24035;48.900;9.188;2022-09-09T04:04:17;14.30;1.00
38239;DHT22;24035;48.900;9.188;2022-09-09T04:07:03;14.50;1.00
38239;DHT22;24035;48.900;9.188;2022-09-09T04:09:51;14.70;99.90
38239;DHT22;24035;48.900;9.188;2022-09-09T04:12:37;14.80;1.00
38239;DHT22;24035;48.900;9.188;2022-09-09T04:15:23;14.90;1.00
38239;DHT22;24035;48.900;9.188;2022-09-09T04:18:10;14.90;1.00
38239;DHT22;24035;48.900;9.188;2022-09-09T04:20:57;14.90;1.00
38239;DHT22;24035;48.900;9.188;2022-09-09T04:23:43;14.80;1.00
38239;DHT22;24035;48.900;9.188;2022-09-09T04:26:29;14.80;1.00
38239;DHT22;24035;48.900;9.188;2022-09-09T04:29:15;14.70;1.00
38239;DHT22;24035;48.900;9.188;2022-09-09T04:32:01;14.70;1.00
38239;DHT22;24035;48.900;9.188;2022-09-09T04:34:47;14.80;1.00
38239;DHT22;24035;48.900;9.188;2022-09-09T04:37:33;14.90;1.00
38239;DHT22;24035;48.900;9.188;2022-09-09T04:40:19;15.00;1.00
38239;DHT22;24035;48.900;9.188;2022-09-09T04:43:05;15.00;1.00
38239;DHT22;24035;48.900;9.188;2022-09-09T04:45:51;15.20;99.90
38239;DHT22;24035;48.900;9.188;2022-09-09T04:48:37;15.30;99.90
38239;DHT22;24035;48.900;9.188;2022-09-09T04:51:23;15.40;99.90
38239;DHT22;24035;48.900;9.188;2022-09-09T04:54:09;15.50;71.70
38239;DHT22;24035;48.900;9.188;2022-09-09T04:56:57;15.60;1.00
38239;DHT22;24035;48.900;9.188;2022-09-09T04:59:43;15.60;1.00
38239;DHT22;24035;48.900;9.188;2022-09-09T05:02:30;15.60;1.00
38239;DHT22;24035;48.900;9.188;2022-09-09T05:05:16;15.40;1.00
38239;DHT22;24035;48.900;9.188;2022-09-09T05:10:48;15.40;57.00
38239;DHT22;24035;48.900;9.188;2022-09-09T05:13:35;15.30;99.90
38239;DHT22;24035;48.900;9.188;2022-09-09T05:16:21;15.20;99.90
38239;DHT22;24035;48.900;9.188;2022-09-09T05:19:08;15.20;99.90
38239;DHT22;24035;48.900;9.188;2022-09-09T05:21:54;15.20;99.90
38239;DHT22;24035;48.900;9.188;2022-09-09T05:24:40;15.40;99.90
38239;DHT22;24035;48.900;9.188;2022-09-09T05:27:26;15.50;99.90
38239;DHT22;24035;48.900;9.188;2022-09-09T05:30:12;15.70;99.90
38239;DHT22;24035;48.900;9.188;2022-09-09T05:32:58;15.80;99.90
38239;DHT22;24035;48.900;9.188;2022-09-09T05:35:44;16.00;1.00
38239;DHT22;24035;48.900;9.188;2022-09-09T05:38:32;16.10;1.00
38239;DHT22;24035;48.900;9.188;2022-09-09T05:41:21;16.10;1.00
38239;DHT22;24035;48.900;9.188;2022-09-09T05:44:08;16.30;1.00
38239;DHT22;24035;48.900;9.188;2022-09-09T05:46:54;16.40;1.00
38239;DHT22;24035;48.900;9.188;2022-09-09T05:49:40;16.40;1.00
38239;DHT22;24035;48.900;9.188;2022-09-09T05:52:26;16.60;1.00
38239;DHT22;24035;48.900;9.188;2022-09-09T05:55:12;16.60;1.00
38239;DHT22;24035;48.900;9.188;2022-09-09T05:57:58;16.70;1.00
38239;DHT22;24035;48.900;9.188;2022-09-09T06:00:45;16.70;1.00
38239;DHT22;24035;48.900;9.188;2022-09-09T06:03:31;16.90;1.00
38239;DHT22;24035;48.900;9.188;2022-09-09T06:06:31;17.00;1.00
38239;DHT22;24035;48.900;9.188;2022-09-09T06:09:17;17.10;1.00
38239;DHT22;24035;48.900;9.188;2022-09-09T06:12:03;17.30;99.90
38239;DHT22;24035;48.900;9.188;2022-09-09T06:14:49;17.30;99.90
38239;DHT22;24035;48.900;9.188;2022-09-09T06:17:37;17.40;99.90
38239;DHT22;24035;48.900;9.188;2022-09-09T06:20:24;17.60;99.90
38239;DHT22;24035;48.900;9.188;2022-09-09T06:23:10;17.60;99.90
38239;DHT22;24035;48.900;9.188;2022-09-09T06:26:06;17.60;99.90
38239;DHT22;24035;48.900;9.188;2022-09-09T06:28:54;17.80;99.90
38239;DHT22;24035;48.900;9.188;2022-09-09T06:31:40;17.90;99.90
38239;DHT22;24035;48.900;9.188;2022-09-09T06:34:26;18.00;99.90
38239;DHT22;24035;48.900;9.188;2022-09-09T06:37:12;18.10;28.00
38239;DHT22;24035;48.900;9.188;2022-09-09T06:39:58;18.20;44.90
38239;DHT22;24035;48.900;9.188;2022-09-09T06:42:44;18.40;99.90
38239;DHT22;24035;48.900;9.188;2022-09-09T06:45:30;18.30;83.70
38239;DHT22;24035;48.900;9.188;2022-09-09T06:48:16;18.50;1.00
38239;DHT22;24035;48.900;9.188;2022-09-09T06:53:54;18.40;1.00
38239;DHT22;24035;48.900;9.188;2022-09-09T06:56:41;18.50;1.00
38239;DHT22;24035;48.900;9.188;2022-09-09T06:59:28;18.60;4.20
38239;DHT22;24035;48.900;9.188;2022-09-09T07:02:16;18.90;1.00
38239;DHT22;24035;48.900;9.188;2022-09-09T07:05:02;19.20;1.00
38239;DHT22;24035;48.900;9.188;2022-09-09T07:07:48;19.40;1.00
38239;DHT22;24035;48.900;9.188;2022-09-09T07:10:36;19.40;1.00
38239;DHT22;24035;48.900;9.188;2022-09-09T07:13:25;19.30;1.00
38239;DHT22;24035;48.900;9.188;2022-09-09T07:16:18;19.20;1.00
38239;DHT22;24035;48.900;9.188;2022-09-09T07:19:04;19.00;1.00
38239;DHT22;24035;48.900;9.188;2022-09-09T07:21:50;19.10;1.00
38239;DHT22;24035;48.900;9.188;2022-09-09T07:24:36;19.20;1.00
38239;DHT22;24035;48.900;9.188;2022-09-09T07:27:22;19.20;1.00
38239;DHT22;24035;48.900;9.188;2022-09-09T07:30:09;19.50;1.00
38239;DHT22;24035;48.900;9.188;2022-09-09T07:32:55;19.50;1.00
38239;DHT22;24035;48.900;9.188;2022-09-09T07:35:42;19.70;1.00
38239;DHT22;24035;48.900;9.188;2022-09-09T07:38:28;19.50;1.00
38239;DHT22;24035;48.900;9.188;2022-09-09T07:44:10;19.40;1.00
38239;DHT22;24035;48.900;9.188;2022-09-09T07:46:56;19.30;1.00
38239;DHT22;24035;48.900;9.188;2022-09-09T07:49:42;19.30;1.00
38239;DHT22;24035;48.900;9.188;2022-09-09T07:52:28;19.30;1.00
38239;DHT22;24035;48.900;9.188;2022-09-09T07:55:14;19.40;1.00
38239;DHT22;24035;48.900;9.188;2022-09-09T07:58:00;19.40;1.00
38239;DHT22;24035;48.900;9.188;2022-09-09T08:00:46;19.50;1.00
38239;DHT22;24035;48.900;9.188;2022-09-09T08:03:32;19.70;1.00
38239;DHT22;24035;48.900;9.188;2022-09-09T08:06:18;19.70;1.00
38239;DHT22;24035;48.900;9.188;2022-09-09T08:09:05;19.70;1.00
38239;DHT22;24035;48.900;9.188;2022-09-09T08:11:52;19.90;1.00
38239;DHT22;24035;48.900;9.188;2022-09-09T08:14:38;19.90;1.00
38239;DHT22;24035;48.900;9.188;2022-09-09T08:17:24;19.80;1.00
38239;DHT22;24035;48.900;9.188;2022-09-09T08:20:10;19.80;1.00
38239;DHT22;24035;48.900;9.188;2022-09-09T08:22:56;19.70;1.00
38239;DHT22;24035;48.900;9.188;2022-09-09T08:25:42;19.70;1.00
38239;DHT22;24035;48.900;9.188;2022-09-09T08:28:28;19.80;1.00
38239;DHT22;24035;48.900;9.188;2022-09-09T08:31:26;19.80;1.00
38239;DHT22;24035;48.900;9.188;2022-09-09T08:34:14;19.90;1.00
38239;DHT22;24035;48.900;9.188;2022-09-09T08:37:00;20.20;99.90
38239;DHT22;24035;48.900;9.188;2022-09-09T08:39:46;20.50;99.90
38239;DHT22;24035;48.900;9.188;2022-09-09T08:42:48;20.70;99.90
38239;DHT22;24035;48.900;9.188;2022-09-09T08:45:50;20.90;99.90
38239;DHT22;24035;48.900;9.188;2022-09-09T08:48:50;20.80;99.90
38239;DHT22;24035;48.900;9.188;2022-09-09T08:51:38;20.90;99.90
38239;DHT22;24035;48.900;9.188;2022-09-09T08:54:26;20.90;99.90
38239;DHT22;24035;48.900;9.188;2022-09-09T08:57:19;21.00;99.90
38239;DHT22;24035;48.900;9.188;2022-09-09T09:00:09;21.00;99.90
38239;DHT22;24035;48.900;9.188;2022-09-09T09:03:28;21.10;99.90
38239;DHT22;24035;48.900;9.188;2022-09-09T09:12:31;21.60;99.90
38239;DHT22;24035;48.900;9.188;2022-09-09T09:15:22;22.00;99.90
38239;DHT22;24035;48.900;9.188;2022-09-09T09:18:11;22.50;99.90
38239;DHT22;24035;48.900;9.188;2022-09-09T09:21:34;22.80;99.90
38239;DHT22;24035;48.900;9.188;2022-09-09T09:24:35;22.90;93.60
38239;DHT22;24035;48.900;9.188;2022-09-09T09:27:36;22.70;88.30
38239;DHT22;24035;48.900;9.188;2022-09-09T09:30:25;22.30;93.20
38239;DHT22;24035;48.900;9.188;2022-09-09T09:36:04;21.50;91.70
38239;DHT22;24035;48.900;9.188;2022-09-09T09:39:00;21.40;93.10
38239;DHT22;24035;48.900;9.188;2022-09-09T09:41:46;21.30;89.90
38239;DHT22;24035;48.900;9.188;2022-09-09T09:44:32;21.20;99.90
38239;DHT22;24035;48.900;9.188;2022-09-09T09:47:22;21.40;99.90
38239;DHT22;24035;48.900;9.188;2022-09-09T09:50:19;21.60;99.40
38239;DHT22;24035;48.900;9.188;2022-09-09T09:53:06;21.80;86.50
38239;DHT22;24035;48.900;9.188;2022-09-09T09:56:06;22.00;75.70
38239;DHT22;24035;48.900;9.188;2022-09-09T09:58:53;22.10;82.50
38239;DHT22;24035;48.900;9.188;2022-09-09T10:01:40;22.10;95.60
38239;DHT22;24035;48.900;9.188;2022-09-09T10:04:25;22.20;99.90
38239;DHT22;24035;48.900;9.188;2022-09-09T10:07:22;22.30;99.90
38239;DHT22;24035;48.900;9.188;2022-09-09T10:10:21;22.50;99.90
38239;DHT22;24035;48.900;9.188;2022-09-09T10:13:25;22.50;99.90
38239;DHT22;24035;48.900;9.188;2022-09-09T10:19:32;22.70;77.70
38239;DHT22;24035;48.900;9.188;2022-09-09T10:22:27;22.70;53.60
38239;DHT22;24035;48.900;9.188;2022-09-09T10:25:28;22.70;61.40
38239;DHT22;24035;48.900;9.188;2022-09-09T10:31:24;23.10;43.00
38239;DHT22;24035;48.900;9.188;2022-09-09T10:34:18;23.10;34.60
38239;DHT22;24035;48.900;9.188;2022-09-09T10:37:26;23.00;42.50
38239;DHT22;24035;48.900;9.188;2022-09-09T10:40:31;23.50;1.00
38239;DHT22;24035;48.900;9.188;2022-09-09T10:46:57;23.50;1.00
38239;DHT22;24035;48.900;9.188;2022-09-09T10:53:02;22.40;1.00
38239;DHT22;24035;48.900;9.188;2022-09-09T10:56:01;22.30;1.00
38239;DHT22;24035;48.900;9.188;2022-09-09T10:59:00;22.20;1.00
38239;DHT22;24035;48.900;9.188;2022-09-09T11:01:53;22.40;1.00
38239;DHT22;24035;48.900;9.188;2022-09-09T11:04:45;22.40;1.00
38239;DHT22;24035;48.900;9.188;2022-09-09T11:07:44;22.20;1.00
38239;DHT22;24035;48.900;9.188;2022-09-09T11:14:05;21.60;27.00
38239;DHT22;24035;48.900;9.188;2022-09-09T11:17:02;21.20;55.50
38239;DHT22;24035;48.900;9.188;2022-09-09T11:19:49;21.30;99.90
38239;DHT22;24035;48.900;9.188;2022-09-09T11:23:03;21.20;99.90
38239;DHT22;24035;48.900;9.188;2022-09-09T11:25:55;20.40;99.90
38239;DHT22;24035;48.900;9.188;2022-09-09T11:34:54;18.20;1.00
38239;DHT22;24035;48.900;9.188;2022-09-09T11:40:43;17.80;1.00
38239;DHT22;24035;48.900;9.188;2022-09-09T11:46:34;18.00;99.90
38239;DHT22;24035;48.900;9.188;2022-09-09T11:49:38;18.10;99.90
38239;DHT22;24035;48.900;9.188;2022-09-09T11:52:47;18.40;99.90
38239;DHT22;24035;48.900;9.188;2022-09-09T11:55:34;18.80;1.00
38239;DHT22;24035;48.900;9.188;2022-09-09T11:58:22;19.20;1.00
38239;DHT22;24035;48.900;9.188;2022-09-09T12:01:36;19.50;1.00
38239;DHT22;24035;48.900;9.188;2022-09-09T12:12:49;20.30;99.90
38239;DHT22;24035;48.900;9.188;2022-09-09T12:15:35;20.40;99.90
38239;DHT22;24035;48.900;9.188;2022-09-09T12:18:35;20.50;99.90
38239;DHT22;24035;48.900;9.188;2022-09-09T12:31:06;21.40;99.90
38239;DHT22;24035;48.900;9.188;2022-09-09T12:33:54;21.80;99.90
38239;DHT22;24035;48.900;9.188;2022-09-09T12:36:41;21.60;99.90
38239;DHT22;24035;48.900;9.188;2022-09-09T12:39:35;21.40;99.90
38239;DHT22;24035;48.900;9.188;2022-09-09T12:42:24;21.30;99.90
38239;DHT22;24035;48.900;9.188;2022-09-09T12:45:22;21.30;99.90
38239;DHT22;24035;48.900;9.188;2022-09-09T12:48:10;21.30;99.90
38239;DHT22;24035;48.900;9.188;2022-09-09T12:50:57;21.30;99.90
38239;DHT22;24035;48.900;9.188;2022-09-09T12:53:45;21.40;99.90
38239;DHT22;24035;48.900;9.188;2022-09-09T12:56:32;21.20;99.90
38239;DHT22;24035;48.900;9.188;2022-09-09T12:59:36;21.20;99.90
38239;DHT22;24035;48.900;9.188;2022-09-09T13:02:25;21.30;99.90
38239;DHT22;24035;48.900;9.188;2022-09-09T13:05:35;21.50;99.90
38239;DHT22;24035;48.900;9.188;2022-09-09T13:08:21;21.50;99.90
38239;DHT22;24035;48.900;9.188;2022-09-09T13:11:10;21.70;99.90
38239;DHT22;24035;48.900;9.188;2022-09-09T13:13:59;22.00;99.90
38239;DHT22;24035;48.900;9.188;2022-09-09T13:16:57;22.10;99.90
38239;DHT22;24035;48.900;9.188;2022-09-09T13:19:44;22.30;99.90
38239;DHT22;24035;48.900;9.188;2022-09-09T13:22:37;22.50;99.90
38239;DHT22;24035;48.900;9.188;2022-09-09T13:25:27;22.70;99.90
38239;DHT22;24035;48.900;9.188;2022-09-09T13:28:22;23.00;99.90
38239;DHT22;24035;48.900;9.188;2022-09-09T13:34:33;23.20;99.90
38239;DHT22;24035;48.900;9.188;2022-09-09T13:37:38;23.50;99.90
38239;DHT22;24035;48.900;9.188;2022-09-09T13:40:26;23.80;99.90
38239;DHT22;24035;48.900;9.188;2022-09-09T13:43:21;23.80;99.90
38239;DHT22;24035;48.900;9.188;2022-09-09T13:49:22;23.70;99.90
38239;DHT22;24035;48.900;9.188;2022-09-09T13:52:16;23.60;99.90
38239;DHT22;24035;48.900;9.188;2022-09-09T13:55:03;23.80;99.90
38239;DHT22;24035;48.900;9.188;2022-09-09T13:57:51;24.00;99.90
38239;DHT22;24035;48.900;9.188;2022-09-09T14:00:37;23.70;99.90
38239;DHT22;24035;48.900;9.188;2022-09-09T14:03:23;23.70;99.90
38239;DHT22;24035;48.900;9.188;2022-09-09T14:06:10;23.90;99.90
38239;DHT22;24035;48.900;9.188;2022-09-09T14:08:56;23.80;99.90
38239;DHT22;24035;48.900;9.188;2022-09-09T14:11:43;23.80;99.90
38239;DHT22;24035;48.900;9.188;2022-09-09T14:14:29;23.70;99.90
38239;DHT22;24035;48.900;9.188;2022-09-09T14:17:15;23.40;99.90
38239;DHT22;24035;48.900;9.188;2022-09-09T14:20:03;23.30;99.90
38239;DHT22;24035;48.900;9.188;2022-09-09T14:22:51;23.20;99.90
38239;DHT22;24035;48.900;9.188;2022-09-09T14:25:44;23.00;99.90
38239;DHT22;24035;48.900;9.188;2022-09-09T14:28:30;22.90;99.90
38239;DHT22;24035;48.900;9.188;2022-09-09T14:31:16;23.20;99.90
38239;DHT22;24035;48.900;9.188;2022-09-09T14:34:04;23.30;99.90
38239;DHT22;24035;48.900;9.188;2022-09-09T14:36:51;23.10;99.90
38239;DHT22;24035;48.900;9.188;2022-09-09T14:39:37;23.20;99.90
38239;DHT22;24035;48.900;9.188;2022-09-09T14:42:23;23.40;99.90
38239;DHT22;24035;48.900;9.188;2022-09-09T14:45:09;23.50;99.90
38239;DHT22;24035;48.900;9.188;2022-09-09T14:47:56;23.50;99.90
38239;DHT22;24035;48.900;9.188;2022-09-09T14:50:42;23.50;99.90
38239;DHT22;24035;48.900;9.188;2022-09-09T14:53:28;23.50;99.90
38239;DHT22;24035;48.900;9.188;2022-09-09T14:56:18;23.40;99.90
38239;DHT22;24035;48.900;9.188;2022-09-09T14:59:05;23.40;99.90
38239;DHT22;24035;48.900;9.188;2022-09-09T15:01:51;23.20;99.90
38239;DHT22;24035;48.900;9.188;2022-09-09T15:04:37;23.10;99.90
38239;DHT22;24035;48.900;9.188;2022-09-09T15:07:24;23.00;99.90
38239;DHT22;24035;48.900;9.188;2022-09-09T15:10:10;23.10;99.90
38239;DHT22;24035;48.900;9.188;2022-09-09T15:12:56;23.00;99.90
38239;DHT22;24035;48.900;9.188;2022-09-09T15:15:43;22.70;99.90
38239;DHT22;24035;48.900;9.188;2022-09-09T15:18:29;22.50;99.90
38239;DHT22;24035;48.900;9.188;2022-09-09T15:21:17;22.10;99.90
38239;DHT22;24035;48.900;9.188;2022-09-09T15:24:05;21.90;99.90
38239;DHT22;24035;48.900;9.188;2022-09-09T15:26:53;22.10;99.90
38239;DHT22;24035;48.900;9.188;2022-09-09T15:29:40;22.10;99.90
38239;DHT22;24035;48.900;9.188;2022-09-09T15:32:27;22.10;99.90
38239;DHT22;24035;48.900;9.188;2022-09-09T15:35:13;22.00;99.90
38239;DHT22;24035;48.900;9.188;2022-09-09T15:38:02;22.10;99.90
38239;DHT22;24035;48.900;9.188;2022-09-09T15:40:54;22.50;99.90
38239;DHT22;24035;48.900;9.188;2022-09-09T15:43:45;22.60;99.90
38239;DHT22;24035;48.900;9.188;2022-09-09T15:46:32;22.60;99.90
38239;DHT22;24035;48.900;9.188;2022-09-09T15:49:21;22.60;99.90
38239;DHT22;24035;48.900;9.188;2022-09-09T15:52:10;22.30;99.90
38239;DHT22;24035;48.900;9.188;2022-09-09T15:54:56;22.00;99.90
38239;DHT22;24035;48.900;9.188;2022-09-09T15:57:42;21.70;99.90
38239;DHT22;24035;48.900;9.188;2022-09-09T16:00:28;21.40;99.90
38239;DHT22;24035;48.900;9.188;2022-09-09T16:03:14;21.20;99.90
38239;DHT22;24035;48.900;9.188;2022-09-09T16:06:01;21.10;99.90
38239;DHT22;24035;48.900;9.188;2022-09-09T16:08:48;21.10;99.90
38239;DHT22;24035;48.900;9.188;2022-09-09T16:11:38;21.10;99.90
38239;DHT22;24035;48.900;9.188;2022-09-09T16:14:24;21.00;99.90
38239;DHT22;24035;48.900;9.188;2022-09-09T16:17:11;20.90;99.90
38239;DHT22;24035;48.900;9.188;2022-09-09T16:19:57;20.90;99.90
38239;DHT22;24035;48.900;9.188;2022-09-09T16:22:43;20.80;99.90
38239;DHT22;24035;48.900;9.188;2022-09-09T16:25:29;20.70;99.90
38239;DHT22;24035;48.900;9.188;2022-09-09T16:28:15;20.10;99.90
38239;DHT22;24035;48.900;9.188;2022-09-09T16:31:05;19.40;94.70
38239;DHT22;24035;48.900;9.188;2022-09-09T16:33:51;19.00;98.90
38239;DHT22;24035;48.900;9.188;2022-09-09T16:36:38;18.60;99.90
38239;DHT22;24035;48.900;9.188;2022-09-09T16:39:25;18.30;99.90
38239;DHT22;24035;48.900;9.188;2022-09-09T16:42:11;17.60;99.90
38239;DHT22;24035;48.900;9.188;2022-09-09T16:44:57;17.10;99.90
38239;DHT22;24035;48.900;9.188;2022-09-09T16:47:43;16.70;99.90
38239;DHT22;24035;48.900;9.188;2022-09-09T16:50:30;16.40;1.00
38239;DHT22;24035;48.900;9.188;2022-09-09T16:53:17;16.10;1.00
38239;DHT22;24035;48.900;9.188;2022-09-09T16:56:07;15.80;99.90
38239;DHT22;24035;48.900;9.188;2022-09-09T16:58:55;15.60;1.00
38239;DHT22;24035;48.900;9.188;2022-09-09T17:01:43;15.40;1.00
38239;DHT22;24035;48.900;9.188;2022-09-09T17:04:29;15.30;99.90
38239;DHT22;24035;48.900;9.188;2022-09-09T17:07:16;15.20;1.00
38239;DHT22;24035;48.900;9.188;2022-09-09T17:10:04;15.30;1.00
38239;DHT22;24035;48.900;9.188;2022-09-09T17:12:51;15.40;1.00
38239;DHT22;24035;48.900;9.188;2022-09-09T17:15:41;15.40;29.00
38239;DHT22;24035;48.900;9.188;2022-09-09T17:18:28;15.50;99.90
38239;DHT22;24035;48.900;9.188;2022-09-09T17:21:17;15.50;99.90
38239;DHT22;24035;48.900;9.188;2022-09-09T17:24:04;15.50;99.90
38239;DHT22;24035;48.900;9.188;2022-09-09T17:26:50;15.30;99.90
38239;DHT22;24035;48.900;9.188;2022-09-09T17:29:36;15.30;99.90
38239;DHT22;24035;48.900;9.188;2022-09-09T17:32:22;15.20;1.00
38239;DHT22;24035;48.900;9.188;2022-09-09T17:35:08;15.20;1.00
38239;DHT22;24035;48.900;9.188;2022-09-09T17:37:54;15.40;99.90
38239;DHT22;24035;48.900;9.188;2022-09-09T17:40:40;15.40;99.90
38239;DHT22;24035;48.900;9.188;2022-09-09T17:43:26;15.40;99.90
38239;DHT22;24035;48.900;9.188;2022-09-09T17:46:21;15.50;99.90
38239;DHT22;24035;48.900;9.188;2022-09-09T17:49:09;15.40;99.90
38239;DHT22;24035;48.900;9.188;2022-09-09T17:51:56;15.40;1.00
38239;DHT22;24035;48.900;9.188;2022-09-09T17:54:42;15.50;99.90
38239;DHT22;24035;48.900;9.188;2022-09-09T17:57:28;15.50;99.90
38239;DHT22;24035;48.900;9.188;2022-09-09T18:00:14;15.50;99.90
38239;DHT22;24035;48.900;9.188;2022-09-09T18:03:00;15.50;99.90
38239;DHT22;24035;48.900;9.188;2022-09-09T18:05:46;15.30;99.90
38239;DHT22;24035;48.900;9.188;2022-09-09T18:08:32;15.30;1.00
38239;DHT22;24035;48.900;9.188;2022-09-09T18:11:20;15.20;92.70
38239;DHT22;24035;48.900;9.188;2022-09-09T18:14:07;15.10;1.00
38239;DHT22;24035;48.900;9.188;2022-09-09T18:16:55;15.20;1.00
38239;DHT22;24035;48.900;9.188;2022-09-09T18:19:41;15.40;81.30
38239;DHT22;24035;48.900;9.188;2022-09-09T18:22:27;15.40;1.00
38239;DHT22;24035;48.900;9.188;2022-09-09T18:25:16;15.50;99.90
38239;DHT22;24035;48.900;9.188;2022-09-09T18:28:02;15.60;1.00
38239;DHT22;24035;48.900;9.188;2022-09-09T18:30:48;15.70;1.00
38239;DHT22;24035;48.900;9.188;2022-09-09T18:33:38;15.80;1.00
38239;DHT22;24035;48.900;9.188;2022-09-09T18:36:28;15.70;1.00
38239;DHT22;24035;48.900;9.188;2022-09-09T18:39:16;15.70;1.00
38239;DHT22;24035;48.900;9.188;2022-09-09T18:42:02;15.60;1.00
38239;DHT22;24035;48.900;9.188;2022-09-09T18:44:49;15.60;1.00
38239;DHT22;24035;48.900;9.188;2022-09-09T18:47:35;15.50;1.00
38239;DHT22;24035;48.900;9.188;2022-09-09T18:50:23;15.40;99.90
38239;DHT22;24035;48.900;9.188;2022-09-09T18:53:08;15.50;99.90
38239;DHT22;24035;48.900;9.188;2022-09-09T18:56:13;15.50;1.00
38239;DHT22;24035;48.900;9.188;2022-09-09T18:59:01;15.40;1.00
38239;DHT22;24035;48.900;9.188;2022-09-09T19:01:47;15.40;1.00
38239;DHT22;24035;48.900;9.188;2022-09-09T19:04:35;15.30;1.00
38239;DHT22;24035;48.900;9.188;2022-09-09T19:07:20;15.20;7.30
38239;DHT22;24035;48.900;9.188;2022-09-09T19:10:07;15.10;99.90
38239;DHT22;24035;48.900;9.188;2022-09-09T19:12:53;15.10;99.90
38239;DHT22;24035;48.900;9.188;2022-09-09T19:15:40;15.10;99.90
38239;DHT22;24035;48.900;9.188;2022-09-09T19:18:26;15.00;99.90
38239;DHT22;24035;48.900;9.188;2022-09-09T19:21:23;15.00;1.00
38239;DHT22;24035;48.900;9.188;2022-09-09T19:27:01;14.90;99.90
38239;DHT22;24035;48.900;9.188;2022-09-09T19:29:47;14.90;99.90
38239;DHT22;24035;48.900;9.188;2022-09-09T19:32:33;14.90;1.00
38239;DHT22;24035;48.900;9.188;2022-09-09T19:35:20;14.80;1.00
38239;DHT22;24035;48.900;9.188;2022-09-09T19:38:06;14.80;99.90